createdAt,value
2019-02-08T00:01:58.330Z,6.30
2019-02-08T00:04:49.861Z,6.30
2019-02-08T00:07:39.934Z,6.30
2019-02-08T00:10:30.490Z,6.30
2019-02-08T00:13:21.690Z,6.30
2019-02-08T00:16:12.584Z,6.30
2019-02-08T00:19:03.347Z,6.30
2019-02-08T00:21:53.381Z,6.20
2019-02-08T00:24:43.624Z,6.20
2019-02-08T00:27:33.829Z,6.10
2019-02-08T00:30:25.037Z,6.20
2019-02-08T00:33:16.102Z,6.20
2019-02-08T00:36:06.422Z,6.30
2019-02-08T00:38:56.463Z,6.30
2019-02-08T00:41:46.797Z,6.30
2019-02-08T00:44:36.914Z,6.40
2019-02-08T00:47:27.258Z,6.40
2019-02-08T00:50:19.713Z,6.30
2019-02-08T00:53:10.141Z,6.30
2019-02-08T00:56:01.029Z,6.30
2019-02-08T00:58:51.730Z,6.30
2019-02-08T01:01:41.656Z,6.30
2019-02-08T01:04:31.858Z,6.30
2019-02-08T01:07:22.086Z,6.30
2019-02-08T01:10:19.038Z,6.40
2019-02-08T01:13:09.003Z,6.50
2019-02-08T01:15:59.073Z,6.50
2019-02-08T01:18:49.070Z,6.60
2019-02-08T01:21:39.366Z,6.60
2019-02-08T01:24:29.685Z,6.60
2019-02-08T01:27:20.188Z,6.60
2019-02-08T01:30:14.247Z,6.60
2019-02-08T01:33:04.978Z,6.60
2019-02-08T01:35:55.147Z,6.60
2019-02-08T01:38:45.486Z,6.70
2019-02-08T01:41:35.896Z,6.70
2019-02-08T01:44:25.866Z,6.70
2019-02-08T01:47:16.205Z,6.70
2019-02-08T01:50:10.518Z,6.70
2019-02-08T01:53:00.814Z,6.70
2019-02-08T01:55:50.806Z,6.70
2019-02-08T01:58:41.034Z,6.70
2019-02-08T02:01:31.315Z,6.70
2019-02-08T02:04:21.619Z,6.70
2019-02-08T02:07:12.914Z,6.70
2019-02-08T02:10:03.031Z,6.70
2019-02-08T02:12:53.319Z,6.70
2019-02-08T02:15:43.814Z,6.80
2019-02-08T02:18:33.722Z,6.70
2019-02-08T02:21:24.474Z,6.70
2019-02-08T02:24:14.477Z,6.70
2019-02-08T02:27:04.543Z,6.70
2019-02-08T02:29:54.994Z,6.70
2019-02-08T02:32:45.321Z,6.70
2019-02-08T02:35:35.727Z,6.80
2019-02-08T02:38:25.778Z,6.80
2019-02-08T02:41:16.055Z,6.80
2019-02-08T02:44:06.471Z,6.80
2019-02-08T02:46:56.473Z,6.80
2019-02-08T02:49:46.354Z,6.90
2019-02-08T02:52:37.098Z,6.90
2019-02-08T02:55:27.521Z,6.90
2019-02-08T02:58:17.506Z,7.00
2019-02-08T03:01:07.974Z,6.90
2019-02-08T03:03:58.002Z,7.00
2019-02-08T03:06:48.283Z,7.00
2019-02-08T03:09:38.715Z,6.90
2019-02-08T03:12:28.780Z,7.00
2019-02-08T03:15:20.179Z,7.00
2019-02-08T03:18:10.557Z,7.00
2019-02-08T03:21:00.713Z,7.00
2019-02-08T03:23:51.062Z,6.90
2019-02-08T03:26:41.427Z,6.90
2019-02-08T03:29:32.750Z,7.00
2019-02-08T03:32:22.763Z,7.00
2019-02-08T03:35:16.302Z,6.90
2019-02-08T03:38:06.589Z,6.90
2019-02-08T03:40:56.788Z,6.90
2019-02-08T03:43:48.342Z,6.90
2019-02-08T03:46:38.470Z,6.90
2019-02-08T03:49:28.730Z,7.00
2019-02-08T03:52:19.010Z,6.90
2019-02-08T03:55:09.830Z,7.00
2019-02-08T03:57:59.853Z,6.90
2019-02-08T04:00:54.447Z,7.00
2019-02-08T04:03:44.761Z,7.00
2019-02-08T04:06:35.386Z,7.00
2019-02-08T04:09:25.624Z,6.90
2019-02-08T04:12:16.007Z,6.90
2019-02-08T04:15:08.203Z,6.90
2019-02-08T04:17:58.378Z,6.90
2019-02-08T04:20:48.366Z,6.90
2019-02-08T04:23:38.458Z,6.90
2019-02-08T04:26:28.752Z,6.90
2019-02-08T04:29:19.145Z,6.90
2019-02-08T04:32:09.107Z,6.90
2019-02-08T04:34:59.265Z,6.90
2019-02-08T04:37:49.589Z,6.90
2019-02-08T04:40:39.529Z,6.90
2019-02-08T04:43:29.851Z,6.90
2019-02-08T04:46:20.532Z,6.90
2019-02-08T04:49:11.034Z,6.90
2019-02-08T04:52:01.246Z,6.90
2019-02-08T04:54:51.579Z,6.90
2019-02-08T04:57:41.770Z,6.90
2019-02-08T05:00:34.045Z,6.90
2019-02-08T05:03:23.917Z,6.90
2019-02-08T05:06:14.157Z,6.90
2019-02-08T05:09:06.650Z,6.90
2019-02-08T05:11:56.642Z,6.90
2019-02-08T05:14:46.626Z,6.90
2019-02-08T05:17:37.032Z,6.90
2019-02-08T05:20:28.330Z,6.90
2019-02-08T05:23:18.392Z,6.90
2019-02-08T05:26:08.459Z,6.90
2019-02-08T05:28:58.590Z,6.90
2019-02-08T05:31:49.029Z,6.90
2019-02-08T05:34:39.262Z,6.90
2019-02-08T05:37:29.268Z,6.90
2019-02-08T05:40:20.403Z,6.90
2019-02-08T05:43:10.754Z,6.90
2019-02-08T05:46:00.941Z,6.90
2019-02-08T05:48:51.142Z,6.90
2019-02-08T05:51:41.076Z,6.80
2019-02-08T05:54:31.074Z,6.80
2019-02-08T05:57:21.530Z,6.70
2019-02-08T06:00:26.446Z,6.70
2019-02-08T06:03:16.836Z,6.70
2019-02-08T06:06:07.522Z,6.70
2019-02-08T06:08:57.538Z,6.70
2019-02-08T06:11:47.826Z,6.70
2019-02-08T06:14:38.665Z,6.70
2019-02-08T06:17:28.915Z,6.70
2019-02-08T06:20:20.548Z,6.70
2019-02-08T06:23:10.766Z,6.70
2019-02-08T06:26:01.054Z,6.70
2019-02-08T06:28:51.934Z,6.70
2019-02-08T06:31:42.118Z,6.80
2019-02-08T06:34:32.059Z,6.80
2019-02-08T06:37:22.237Z,6.80
2019-02-08T06:40:14.954Z,6.80
2019-02-08T06:43:05.815Z,6.80
2019-02-08T06:45:55.797Z,6.80
2019-02-08T06:48:46.150Z,6.80
2019-02-08T06:51:36.359Z,6.80
2019-02-08T06:54:28.285Z,6.90
2019-02-08T06:57:53.005Z,6.90
2019-02-08T07:01:06.637Z,6.90
2019-02-08T07:04:31.154Z,7.00
2019-02-08T07:07:46.557Z,7.00
2019-02-08T07:10:54.911Z,7.00
2019-02-08T07:14:10.465Z,7.10
2019-02-08T07:17:16.202Z,7.10
2019-02-08T07:20:32.461Z,7.10
2019-02-08T07:23:40.167Z,7.10
2019-02-08T07:26:55.330Z,7.20
2019-02-08T07:30:04.366Z,7.20
2019-02-08T07:33:24.027Z,7.20
2019-02-08T07:36:32.115Z,7.20
2019-02-08T07:39:44.119Z,7.30
2019-02-08T07:42:54.583Z,7.30
2019-02-08T07:46:13.886Z,7.30
2019-02-08T07:49:12.530Z,7.40
2019-02-08T07:52:21.506Z,7.40
2019-02-08T07:55:40.035Z,7.40
2019-02-08T07:59:07.494Z,7.40
2019-02-08T08:02:15.998Z,7.50
2019-02-08T08:05:25.581Z,7.50
2019-02-08T08:08:33.010Z,7.50
2019-02-08T08:11:47.823Z,7.60
2019-02-08T08:14:58.783Z,7.60
2019-02-08T08:18:13.850Z,7.70
2019-02-08T08:21:26.324Z,7.80
2019-02-08T08:24:37.410Z,7.80
2019-02-08T08:27:46.862Z,7.80
2019-02-08T08:30:56.499Z,7.80
2019-02-08T08:33:57.775Z,7.90
2019-02-08T08:37:33.594Z,7.90
2019-02-08T08:41:07.950Z,7.90
2019-02-08T08:44:37.015Z,8.00
2019-02-08T08:48:16.194Z,8.00
2019-02-08T08:51:26.829Z,8.10
2019-02-08T08:55:07.043Z,8.10
2019-02-08T08:58:31.494Z,8.20
2019-02-08T09:02:15.005Z,8.20
2019-02-08T09:05:32.940Z,8.30
2019-02-08T09:08:50.747Z,8.30
2019-02-08T09:12:09.965Z,8.40
2019-02-08T09:15:43.251Z,8.40
2019-02-08T09:19:09.385Z,8.40
2019-02-08T09:22:42.631Z,8.40
2019-02-08T09:26:00.985Z,8.40
2019-02-08T09:29:37.229Z,8.40
2019-02-08T09:33:17.290Z,8.40
2019-02-08T09:36:39.491Z,8.50
2019-02-08T09:40:06.877Z,8.50
2019-02-08T09:43:31.999Z,8.50
2019-02-08T09:47:05.208Z,8.60
2019-02-08T09:50:48.545Z,8.60
2019-02-08T09:54:14.293Z,8.60
2019-02-08T09:57:55.046Z,8.70
2019-02-08T10:01:13.334Z,8.70
2019-02-08T10:04:46.177Z,8.70
2019-02-08T10:08:13.417Z,8.80
2019-02-08T10:11:33.510Z,8.80
2019-02-08T10:15:04.507Z,8.90
2019-02-08T10:18:31.427Z,9.00
2019-02-08T10:21:57.692Z,9.00
2019-02-08T10:25:35.230Z,9.10
2019-02-08T10:29:14.605Z,9.00
2019-02-08T10:32:35.403Z,9.10
2019-02-08T10:36:22.542Z,9.20
2019-02-08T10:39:50.779Z,9.20
2019-02-08T10:43:16.341Z,9.20
2019-02-08T10:46:45.536Z,9.20
2019-02-08T10:50:30.622Z,9.20
2019-02-08T10:54:20.311Z,9.20
2019-02-08T10:58:02.874Z,9.30
2019-02-08T11:01:29.688Z,9.30
2019-02-08T11:05:25.457Z,9.40
2019-02-08T11:08:55.438Z,9.50
2019-02-08T11:12:12.153Z,9.50
2019-02-08T11:15:45.474Z,9.60
2019-02-08T11:19:15.437Z,9.60
2019-02-08T11:22:05.959Z,9.60
2019-02-08T11:24:56.345Z,9.60
2019-02-08T11:27:46.525Z,9.50
2019-02-08T11:30:36.726Z,9.50
2019-02-08T11:33:26.639Z,9.60
2019-02-08T11:36:17.076Z,9.60
2019-02-08T11:39:13.558Z,9.70
2019-02-08T11:42:03.609Z,9.70
2019-02-08T11:44:53.688Z,9.70
2019-02-08T11:47:43.662Z,9.80
2019-02-08T11:50:33.686Z,9.90
2019-02-08T11:53:24.429Z,10.00
2019-02-08T11:56:14.834Z,10.00
2019-02-08T11:59:05.929Z,10.10
2019-02-08T12:01:56.251Z,10.10
2019-02-08T12:04:46.402Z,10.10
2019-02-08T12:07:36.863Z,10.10
2019-02-08T12:10:26.921Z,10.10
2019-02-08T12:13:17.290Z,10.10
2019-02-08T12:16:07.203Z,10.20
2019-02-08T12:18:57.262Z,10.20
2019-02-08T12:21:47.582Z,10.10
2019-02-08T12:24:37.754Z,10.10
2019-02-08T12:27:28.093Z,10.10
2019-02-08T12:30:25.182Z,10.00
2019-02-08T12:33:15.079Z,10.00
2019-02-08T12:36:05.467Z,10.00
2019-02-08T12:38:55.369Z,10.10
2019-02-08T12:41:45.909Z,10.10
2019-02-08T12:44:36.077Z,10.10
2019-02-08T12:47:26.062Z,10.10
2019-02-08T12:50:16.647Z,10.20
2019-02-08T12:53:08.110Z,10.20
2019-02-08T12:55:59.042Z,10.20
2019-02-08T12:58:49.030Z,10.20
2019-02-08T13:01:39.388Z,10.30
2019-02-08T13:04:29.690Z,10.40
2019-02-08T13:07:20.046Z,10.40
2019-02-08T13:10:11.918Z,10.50
2019-02-08T13:13:01.937Z,10.60
2019-02-08T13:15:52.873Z,10.60
2019-02-08T13:18:45.319Z,10.60
2019-02-08T13:21:35.625Z,10.50
2019-02-08T13:24:25.958Z,10.50
2019-02-08T13:27:16.218Z,10.50
2019-02-08T13:30:18.013Z,10.60
2019-02-08T13:33:08.051Z,10.60
2019-02-08T13:35:58.249Z,10.70
2019-02-08T13:38:48.316Z,10.70
2019-02-08T13:41:38.466Z,10.70
2019-02-08T13:44:28.606Z,10.60
2019-02-08T13:47:19.089Z,10.40
2019-02-08T13:50:16.193Z,10.40
2019-02-08T13:53:06.405Z,10.40
2019-02-08T13:55:56.871Z,10.30
2019-02-08T13:58:46.843Z,10.30
2019-02-08T14:01:37.345Z,10.20
2019-02-08T14:04:27.193Z,10.20
2019-02-08T14:07:18.102Z,10.20
2019-02-08T14:10:09.650Z,10.20
2019-02-08T14:12:59.571Z,10.20
2019-02-08T14:15:50.038Z,10.20
2019-02-08T14:18:41.754Z,10.20
2019-02-08T14:21:31.952Z,10.20
2019-02-08T14:24:22.489Z,10.20
2019-02-08T14:27:12.961Z,10.20
2019-02-08T14:30:03.162Z,10.20
2019-02-08T14:32:53.541Z,10.20
2019-02-08T14:35:43.806Z,10.20
2019-02-08T14:38:35.532Z,10.20
2019-02-08T14:41:25.631Z,10.20
2019-02-08T14:44:15.949Z,10.20
2019-02-08T14:47:05.954Z,10.20
2019-02-08T14:49:55.863Z,10.20
2019-02-08T14:52:46.402Z,10.20
2019-02-08T14:55:36.598Z,10.10
2019-02-08T14:58:26.737Z,10.10
2019-02-08T15:01:16.797Z,10.10
2019-02-08T15:04:07.878Z,10.10
2019-02-08T15:06:57.948Z,10.10
2019-02-08T15:09:47.873Z,10.00
2019-02-08T15:12:37.843Z,10.10
2019-02-08T15:15:28.133Z,10.00
2019-02-08T15:18:18.795Z,10.00
2019-02-08T15:21:08.970Z,10.00
2019-02-08T15:23:59.414Z,10.00
2019-02-08T15:26:49.535Z,10.00
2019-02-08T15:29:39.862Z,10.00
2019-02-08T15:32:29.917Z,10.00
2019-02-08T15:35:22.030Z,10.00
2019-02-08T15:38:12.215Z,9.90
2019-02-08T15:41:03.100Z,9.90
2019-02-08T15:43:53.194Z,9.90
2019-02-08T15:46:43.446Z,9.90
2019-02-08T15:49:33.427Z,9.90
2019-02-08T15:52:23.509Z,9.80
2019-02-08T15:55:17.222Z,9.90
2019-02-08T15:58:07.714Z,9.90
2019-02-08T16:00:57.895Z,9.90
2019-02-08T16:03:48.074Z,9.90
2019-02-08T16:06:38.199Z,9.90
2019-02-08T16:09:28.483Z,9.90
2019-02-08T16:12:18.385Z,9.90
2019-02-08T16:15:11.938Z,9.90
2019-02-08T16:18:02.145Z,9.90
2019-02-08T16:20:52.382Z,9.90
2019-02-08T16:23:43.351Z,9.90
2019-02-08T16:26:33.858Z,9.90
2019-02-08T16:29:23.863Z,9.90
2019-02-08T16:32:14.002Z,9.90
2019-02-08T16:35:05.365Z,9.90
2019-02-08T16:37:55.654Z,9.90
2019-02-08T16:40:45.786Z,9.90
2019-02-08T16:43:36.054Z,9.90
2019-02-08T16:46:26.239Z,9.90
2019-02-08T16:49:16.432Z,9.90
2019-02-08T16:52:07.810Z,9.80
2019-02-08T16:54:58.046Z,9.80
2019-02-08T16:57:48.509Z,9.90
2019-02-08T17:00:38.991Z,9.90
2019-02-08T17:03:29.102Z,9.90
2019-02-08T17:06:19.473Z,9.90
2019-02-08T17:09:13.904Z,9.90
2019-02-08T17:12:04.089Z,9.90
2019-02-08T17:14:54.681Z,9.90
2019-02-08T17:17:45.078Z,9.90
2019-02-08T17:20:43.538Z,9.90
2019-02-08T17:23:33.826Z,9.90
2019-02-08T17:26:24.247Z,10.00
2019-02-08T17:29:14.282Z,9.90
2019-02-08T17:32:04.596Z,9.90
2019-02-08T17:34:54.587Z,9.90
2019-02-08T17:37:44.944Z,10.00
2019-02-08T17:40:36.515Z,10.00
2019-02-08T17:43:26.933Z,10.00
2019-02-08T17:46:16.890Z,10.00
2019-02-08T17:49:07.035Z,10.00
2019-02-08T17:51:57.338Z,10.00
2019-02-08T17:54:47.742Z,10.00
2019-02-08T17:57:38.230Z,10.00
2019-02-08T18:00:47.967Z,10.00
2019-02-08T18:03:38.195Z,9.90
2019-02-08T18:06:28.574Z,9.80
2019-02-08T18:09:18.843Z,9.70
2019-02-08T18:12:08.654Z,9.70
2019-02-08T18:14:58.935Z,9.70
2019-02-08T18:17:49.124Z,9.70
2019-02-08T18:20:41.596Z,9.70
2019-02-08T18:23:31.826Z,9.70
2019-02-08T18:26:22.085Z,9.70
2019-02-08T18:29:12.778Z,9.80
2019-02-08T18:32:03.086Z,9.80
2019-02-08T18:34:54.398Z,9.90
2019-02-08T18:37:44.748Z,9.90
2019-02-08T18:40:34.945Z,9.80
2019-02-08T18:43:25.223Z,9.70
2019-02-08T18:46:15.613Z,9.50
2019-02-08T18:49:05.629Z,9.40
2019-02-08T18:51:55.854Z,9.40
2019-02-08T18:54:45.852Z,9.40
2019-02-08T18:57:36.623Z,9.40
2019-02-08T19:00:39.503Z,9.40
2019-02-08T19:03:24.298Z,9.30
2019-02-08T19:06:14.242Z,9.30
2019-02-08T19:09:08.166Z,9.30
2019-02-08T19:11:58.476Z,9.30
2019-02-08T19:14:48.666Z,9.30
2019-02-08T19:17:39.049Z,9.30
2019-02-08T19:20:29.822Z,9.40
2019-02-08T19:23:20.045Z,9.40
2019-02-08T19:26:10.220Z,9.30
2019-02-08T19:29:00.609Z,9.40
2019-02-08T19:31:50.978Z,9.30
2019-02-08T19:34:41.274Z,9.40
2019-02-08T19:37:31.245Z,9.40
2019-02-08T19:40:41.801Z,9.30
2019-02-08T19:43:31.678Z,9.30
2019-02-08T19:46:22.121Z,9.20
2019-02-08T19:49:12.330Z,9.10
2019-02-08T19:52:02.651Z,9.10
2019-02-08T19:54:52.927Z,9.00
2019-02-08T19:57:43.177Z,9.00
2019-02-08T20:00:34.258Z,9.00
2019-02-08T20:03:25.479Z,8.90
2019-02-08T20:06:15.876Z,8.90
2019-02-08T20:09:09.166Z,8.90
2019-02-08T20:11:59.614Z,8.90
2019-02-08T20:14:49.978Z,8.80
2019-02-08T20:17:40.213Z,8.80
2019-02-08T20:20:30.571Z,8.80
2019-02-08T20:23:20.833Z,8.80
2019-02-08T20:26:11.054Z,8.80
2019-02-08T20:29:01.591Z,8.80
2019-02-08T20:31:51.934Z,8.80
2019-02-08T20:34:41.912Z,8.70
2019-02-08T20:37:32.606Z,8.70
2019-02-08T20:40:27.832Z,8.70
2019-02-08T20:43:18.177Z,8.70
2019-02-08T20:46:08.401Z,8.60
2019-02-08T20:48:59.210Z,8.60
2019-02-08T20:51:49.730Z,8.60
2019-02-08T20:54:40.690Z,8.60
2019-02-08T20:57:31.202Z,8.60
2019-02-08T21:00:29.982Z,8.50
2019-02-08T21:03:20.898Z,8.50
2019-02-08T21:06:11.058Z,8.50
2019-02-08T21:09:01.551Z,8.50
2019-02-08T21:11:53.014Z,8.60
2019-02-08T21:14:43.458Z,8.50
2019-02-08T21:17:33.763Z,8.50
2019-02-08T21:20:23.847Z,8.50
2019-02-08T21:23:15.498Z,8.50
2019-02-08T21:26:05.913Z,8.50
2019-02-08T21:28:58.083Z,8.50
2019-02-08T21:31:47.963Z,8.50
2019-02-08T21:34:37.967Z,8.50
2019-02-08T21:37:28.385Z,8.50
2019-02-08T21:40:20.006Z,8.50
2019-02-08T21:43:10.431Z,8.50
2019-02-08T21:46:00.801Z,8.40
2019-02-08T21:48:51.326Z,8.40
2019-02-08T21:51:41.527Z,8.50
2019-02-08T21:54:32.091Z,8.50
2019-02-08T21:57:23.145Z,8.50
2019-02-08T22:00:23.890Z,8.50
2019-02-08T22:03:14.611Z,8.50
2019-02-08T22:06:09.053Z,8.50
2019-02-08T22:08:59.273Z,8.50
2019-02-08T22:11:49.283Z,8.50
2019-02-08T22:14:40.074Z,8.50
2019-02-08T22:17:30.346Z,8.50
2019-02-08T22:20:20.970Z,8.60
2019-02-08T22:23:11.246Z,8.60
2019-02-08T22:26:01.348Z,8.60
2019-02-08T22:28:51.548Z,8.60
2019-02-08T22:31:42.357Z,8.60
2019-02-08T22:34:32.578Z,8.60
2019-02-08T22:37:22.882Z,8.60
2019-02-08T22:40:15.587Z,8.60
2019-02-08T22:43:06.114Z,8.60
2019-02-08T22:45:56.054Z,8.60
2019-02-08T22:48:46.389Z,8.60
2019-02-08T22:51:37.070Z,8.60
2019-02-08T22:54:28.072Z,8.60
2019-02-08T22:57:18.150Z,8.60
2019-02-08T23:00:39.761Z,8.50
2019-02-08T23:03:30.897Z,8.50
2019-02-08T23:06:21.070Z,8.40
2019-02-08T23:09:20.950Z,8.40
2019-02-08T23:12:11.363Z,8.40
2019-02-08T23:15:01.413Z,8.30
2019-02-08T23:17:51.313Z,8.30
2019-02-08T23:20:41.387Z,8.20
2019-02-08T23:23:31.454Z,8.20
2019-02-08T23:26:21.586Z,8.20
2019-02-08T23:29:11.638Z,8.10
2019-02-08T23:32:02.165Z,8.10
2019-02-08T23:34:52.901Z,8.20
2019-02-08T23:37:43.315Z,8.10
2019-02-08T23:40:33.524Z,8.10
2019-02-08T23:43:23.545Z,8.10
2019-02-08T23:46:13.820Z,8.10
2019-02-08T23:49:03.929Z,8.00
2019-02-08T23:51:54.724Z,7.90
2019-02-08T23:54:44.689Z,7.90
